createdAt,value
2017-11-15T00:01:22.888Z,62.50
2017-11-15T00:03:50.970Z,62.50
2017-11-15T00:06:19.276Z,62.50
2017-11-15T00:08:48.354Z,62.50
2017-11-15T00:11:16.661Z,62.50
2017-11-15T00:13:44.972Z,62.50
2017-11-15T00:16:13.265Z,62.50
2017-11-15T00:18:41.577Z,62.30
2017-11-15T00:21:09.883Z,62.30
2017-11-15T00:23:38.156Z,62.30
2017-11-15T00:26:06.567Z,62.50
2017-11-15T00:28:34.833Z,62.60
2017-11-15T00:31:03.137Z,62.70
2017-11-15T00:33:31.234Z,62.70
2017-11-15T00:35:59.541Z,62.70
2017-11-15T00:38:27.669Z,62.70
2017-11-15T00:40:55.987Z,62.60
2017-11-15T00:43:24.298Z,62.50
2017-11-15T00:45:52.589Z,62.60
2017-11-15T00:48:20.847Z,62.50
2017-11-15T00:50:49.165Z,62.40
2017-11-15T00:53:17.442Z,62.50
2017-11-15T00:55:45.741Z,62.50
2017-11-15T00:58:14.021Z,62.60
2017-11-15T01:00:42.341Z,62.60
2017-11-15T01:03:10.651Z,63.30
2017-11-15T01:05:38.954Z,62.60
2017-11-15T01:08:07.284Z,62.60
2017-11-15T01:10:35.554Z,62.60
2017-11-15T01:13:03.860Z,62.50
2017-11-15T01:15:32.131Z,62.50
2017-11-15T01:18:00.463Z,62.50
2017-11-15T01:20:28.745Z,62.50
2017-11-15T01:22:57.014Z,62.50
2017-11-15T01:25:25.317Z,62.50
2017-11-15T01:27:53.686Z,62.60
2017-11-15T01:30:22.011Z,62.50
2017-11-15T01:32:51.100Z,62.50
2017-11-15T01:35:19.583Z,62.50
2017-11-15T01:37:48.665Z,62.30
2017-11-15T01:40:16.969Z,62.30
2017-11-15T01:42:46.044Z,62.40
2017-11-15T01:45:14.341Z,62.30
2017-11-15T01:47:43.235Z,62.30
2017-11-15T01:50:12.329Z,62.30
2017-11-15T01:52:40.605Z,62.30
2017-11-15T01:55:08.917Z,62.20
2017-11-15T01:57:37.181Z,62.20
2017-11-15T02:00:05.379Z,62.20
2017-11-15T02:02:33.704Z,62.20
2017-11-15T02:05:02.553Z,62.40
2017-11-15T02:07:30.677Z,62.10
2017-11-15T02:09:58.982Z,63.20
2017-11-15T02:12:27.301Z,62.20
2017-11-15T02:14:55.633Z,62.20
2017-11-15T02:17:23.934Z,62.30
2017-11-15T02:19:52.199Z,62.40
2017-11-15T02:22:20.528Z,62.40
2017-11-15T02:24:49.427Z,62.70
2017-11-15T02:27:17.548Z,62.60
2017-11-15T02:29:45.822Z,62.90
2017-11-15T02:32:14.094Z,63.10
2017-11-15T02:34:42.417Z,63.20
2017-11-15T02:37:10.728Z,63.30
2017-11-15T02:39:39.532Z,63.30
2017-11-15T02:42:07.848Z,63.30
2017-11-15T02:44:36.124Z,63.40
2017-11-15T02:47:04.457Z,63.50
2017-11-15T02:49:32.744Z,63.50
2017-11-15T02:52:01.074Z,63.60
2017-11-15T02:54:29.375Z,63.60
2017-11-15T02:56:57.689Z,63.60
2017-11-15T02:59:25.953Z,63.70
2017-11-15T03:01:54.260Z,63.70
2017-11-15T03:04:22.584Z,63.80
2017-11-15T03:06:51.648Z,63.80
2017-11-15T03:09:19.956Z,63.80
2017-11-15T03:11:48.258Z,63.90
2017-11-15T03:14:16.566Z,63.90
2017-11-15T03:16:44.862Z,64.00
2017-11-15T03:19:13.969Z,63.90
2017-11-15T03:21:43.002Z,64.40
2017-11-15T03:24:11.303Z,63.90
2017-11-15T03:26:39.636Z,64.00
2017-11-15T03:29:07.981Z,64.10
2017-11-15T03:31:36.286Z,64.00
2017-11-15T03:34:04.562Z,64.20
2017-11-15T03:36:32.892Z,64.20
2017-11-15T03:39:01.222Z,64.20
2017-11-15T03:41:30.245Z,64.20
2017-11-15T03:43:58.596Z,64.20
2017-11-15T03:46:27.689Z,64.20
2017-11-15T03:48:56.764Z,64.20
2017-11-15T03:51:25.063Z,64.20
2017-11-15T03:53:54.158Z,64.30
2017-11-15T03:56:23.230Z,64.30
2017-11-15T03:58:51.532Z,64.30
2017-11-15T04:01:19.853Z,64.30
2017-11-15T04:03:48.236Z,64.30
2017-11-15T04:06:16.587Z,64.30
2017-11-15T04:08:44.862Z,64.40
2017-11-15T04:11:13.206Z,64.40
2017-11-15T04:13:42.288Z,65.30
2017-11-15T04:16:10.567Z,64.50
2017-11-15T04:18:38.890Z,64.40
2017-11-15T04:21:07.164Z,64.40
2017-11-15T04:23:35.503Z,64.50
2017-11-15T04:26:03.799Z,64.50
2017-11-15T04:28:32.068Z,64.50
2017-11-15T04:31:00.345Z,64.50
2017-11-15T04:33:29.418Z,64.50
2017-11-15T04:35:58.510Z,64.50
2017-11-15T04:38:26.840Z,64.40
2017-11-15T04:40:55.148Z,64.50
2017-11-15T04:43:23.425Z,64.50
2017-11-15T04:45:51.556Z,65.30
2017-11-15T04:48:19.630Z,64.10
2017-11-15T04:50:48.200Z,64.50
2017-11-15T04:53:17.278Z,64.40
2017-11-15T04:55:45.641Z,64.50
2017-11-15T04:58:13.945Z,64.60
2017-11-15T05:00:42.246Z,64.50
2017-11-15T05:03:10.525Z,64.50
2017-11-15T05:05:38.833Z,64.50
2017-11-15T05:08:07.233Z,64.40
2017-11-15T05:10:35.506Z,64.40
2017-11-15T05:13:03.780Z,64.40
2017-11-15T05:15:32.087Z,64.50
2017-11-15T05:18:00.394Z,64.40
2017-11-15T05:20:28.659Z,64.50
2017-11-15T05:22:56.946Z,64.50
2017-11-15T05:25:25.321Z,64.40
2017-11-15T05:27:53.591Z,64.50
2017-11-15T05:30:21.925Z,64.50
2017-11-15T05:32:50.197Z,64.50
2017-11-15T05:35:18.457Z,64.60
2017-11-15T05:37:46.783Z,64.60
2017-11-15T05:40:15.848Z,64.60
2017-11-15T05:42:44.897Z,64.50
2017-11-15T05:45:13.167Z,64.50
2017-11-15T05:47:41.439Z,64.50
2017-11-15T05:50:10.824Z,64.60
2017-11-15T05:52:39.848Z,64.60
2017-11-15T05:55:08.159Z,64.60
2017-11-15T05:57:36.473Z,64.60
2017-11-15T06:00:04.813Z,64.60
2017-11-15T06:02:33.924Z,64.60
2017-11-15T06:05:02.302Z,64.60
2017-11-15T06:07:30.954Z,64.60
2017-11-15T06:09:59.319Z,64.60
2017-11-15T06:12:27.883Z,64.60
2017-11-15T06:14:56.450Z,64.60
2017-11-15T06:17:25.336Z,64.60
2017-11-15T06:19:53.935Z,64.60
2017-11-15T06:22:22.488Z,64.60
2017-11-15T06:24:50.944Z,64.60
2017-11-15T06:27:20.245Z,64.60
2017-11-15T06:29:48.748Z,64.60
2017-11-15T06:32:17.280Z,64.70
2017-11-15T06:34:46.945Z,64.70
2017-11-15T06:37:15.345Z,64.70
2017-11-15T06:39:43.579Z,64.70
2017-11-15T06:42:11.872Z,64.60
2017-11-15T06:44:40.412Z,64.70
2017-11-15T06:47:09.476Z,64.70
2017-11-15T06:49:37.797Z,64.60
2017-11-15T06:52:06.082Z,64.60
2017-11-15T06:54:34.217Z,64.70
2017-11-15T06:57:02.509Z,64.70
2017-11-15T06:59:30.842Z,64.80
2017-11-15T07:01:59.268Z,64.70
2017-11-15T07:04:27.581Z,64.70
2017-11-15T07:06:56.023Z,64.80
2017-11-15T07:09:24.328Z,64.80
2017-11-15T07:11:52.698Z,64.80
2017-11-15T07:14:21.001Z,64.70
2017-11-15T07:16:49.263Z,64.70
2017-11-15T07:19:17.564Z,64.70
2017-11-15T07:21:45.852Z,64.70
2017-11-15T07:24:14.164Z,64.70
2017-11-15T07:26:42.444Z,64.70
2017-11-15T07:29:10.758Z,64.70
2017-11-15T07:31:40.030Z,64.70
2017-11-15T07:34:08.288Z,64.70
2017-11-15T07:36:37.360Z,64.70
2017-11-15T07:39:05.379Z,64.80
2017-11-15T07:41:33.692Z,64.70
2017-11-15T07:44:01.989Z,64.60
2017-11-15T07:46:30.324Z,64.60
2017-11-15T07:48:58.420Z,64.60
2017-11-15T07:51:26.692Z,64.60
2017-11-15T07:53:55.013Z,64.60
2017-11-15T07:56:24.116Z,64.50
2017-11-15T07:58:53.200Z,64.50
2017-11-15T08:01:21.513Z,64.50
2017-11-15T08:03:49.788Z,64.50
2017-11-15T08:06:18.103Z,64.50
2017-11-15T08:08:46.557Z,64.50
2017-11-15T08:11:14.874Z,64.50
2017-11-15T08:13:43.170Z,64.50
2017-11-15T08:16:12.219Z,64.70
2017-11-15T08:18:40.525Z,64.70
2017-11-15T08:21:08.822Z,65.40
2017-11-15T08:23:37.886Z,64.70
2017-11-15T08:26:06.207Z,64.60
2017-11-15T08:28:34.486Z,64.70
2017-11-15T08:31:02.792Z,64.60
2017-11-15T08:33:31.116Z,64.60
2017-11-15T08:35:59.409Z,64.60
2017-11-15T08:38:27.509Z,64.50
2017-11-15T08:40:55.843Z,64.50
2017-11-15T08:43:24.888Z,64.90
2017-11-15T08:45:53.235Z,64.50
2017-11-15T08:48:22.316Z,64.50
2017-11-15T08:50:51.410Z,64.50
2017-11-15T08:53:19.717Z,64.30
2017-11-15T08:55:48.007Z,64.40
2017-11-15T08:58:16.310Z,64.40
2017-11-15T09:00:44.139Z,64.40
2017-11-15T09:03:12.398Z,64.50
2017-11-15T09:05:40.652Z,64.40
2017-11-15T09:08:08.958Z,64.40
2017-11-15T09:10:37.272Z,64.30
2017-11-15T09:13:05.613Z,64.40
2017-11-15T09:15:33.889Z,64.40
2017-11-15T09:18:02.169Z,64.40
2017-11-15T09:20:30.516Z,64.30
2017-11-15T09:22:58.903Z,64.20
2017-11-15T09:25:28.154Z,64.20
2017-11-15T09:27:56.562Z,64.20
2017-11-15T09:30:25.474Z,64.20
2017-11-15T09:32:54.505Z,64.70
2017-11-15T09:35:22.815Z,64.10
2017-11-15T09:37:51.116Z,64.20
2017-11-15T09:40:19.448Z,64.20
2017-11-15T09:42:47.732Z,64.30
2017-11-15T09:45:16.045Z,63.60
2017-11-15T09:47:44.349Z,62.70
2017-11-15T09:50:12.440Z,62.10
2017-11-15T09:52:40.757Z,61.70
2017-11-15T09:55:09.177Z,61.60
2017-11-15T09:57:38.231Z,61.30
2017-11-15T10:00:06.524Z,61.30
2017-11-15T10:02:35.167Z,61.40
2017-11-15T10:05:03.483Z,61.20
2017-11-15T10:07:31.764Z,61.10
2017-11-15T10:10:00.041Z,60.90
2017-11-15T10:12:28.341Z,60.70
2017-11-15T10:14:56.675Z,60.60
2017-11-15T10:17:24.995Z,60.60
2017-11-15T10:19:53.304Z,60.50
2017-11-15T10:22:21.635Z,60.60
2017-11-15T10:24:50.718Z,60.70
2017-11-15T10:27:19.037Z,60.40
2017-11-15T10:29:47.323Z,60.40
2017-11-15T10:32:15.718Z,60.30
2017-11-15T10:34:44.041Z,60.20
2017-11-15T10:37:12.355Z,60.10
2017-11-15T10:39:40.721Z,60.10
2017-11-15T10:42:09.047Z,60.00
2017-11-15T10:44:38.114Z,60.00
2017-11-15T10:47:06.419Z,59.90
2017-11-15T10:49:34.696Z,59.80
2017-11-15T10:52:03.014Z,59.90
2017-11-15T10:54:32.118Z,59.80
2017-11-15T10:57:01.216Z,59.80
2017-11-15T10:59:29.505Z,59.60
2017-11-15T11:01:58.024Z,59.70
2017-11-15T11:04:26.335Z,59.70
2017-11-15T11:06:54.683Z,59.70
2017-11-15T11:09:22.970Z,59.70
2017-11-15T11:11:51.324Z,59.60
2017-11-15T11:14:19.666Z,59.60
2017-11-15T11:16:47.957Z,59.60
2017-11-15T11:19:19.262Z,59.60
2017-11-15T11:21:47.633Z,59.50
2017-11-15T11:24:15.891Z,59.60
2017-11-15T11:26:44.216Z,59.60
2017-11-15T11:29:13.266Z,59.50
2017-11-15T11:31:41.582Z,59.50
2017-11-15T11:34:10.936Z,59.50
2017-11-15T11:36:39.256Z,59.60
2017-11-15T11:39:07.702Z,59.80
2017-11-15T11:41:36.015Z,59.70
2017-11-15T11:44:03.856Z,59.70
2017-11-15T11:46:32.419Z,59.60
2017-11-15T11:49:00.740Z,60.40
2017-11-15T11:51:29.218Z,62.40
2017-11-15T11:53:57.528Z,64.30
2017-11-15T11:56:25.831Z,66.20
2017-11-15T11:58:54.153Z,65.20
2017-11-15T12:01:24.204Z,65.20
2017-11-15T12:03:52.468Z,64.90
2017-11-15T12:06:20.776Z,64.60
2017-11-15T12:08:49.102Z,64.50
2017-11-15T12:11:17.440Z,64.50
2017-11-15T12:13:45.728Z,64.40
2017-11-15T12:16:14.095Z,64.40
2017-11-15T12:18:42.437Z,64.30
2017-11-15T12:21:10.765Z,64.30
2017-11-15T12:23:39.073Z,64.20
2017-11-15T12:26:07.417Z,64.10
2017-11-15T12:28:35.697Z,64.10
2017-11-15T12:31:04.161Z,64.00
2017-11-15T12:33:32.508Z,63.90
2017-11-15T12:36:00.833Z,63.90
2017-11-15T12:38:29.306Z,63.80
2017-11-15T12:40:57.637Z,63.80
2017-11-15T12:43:25.942Z,63.80
2017-11-15T12:45:54.270Z,63.60
2017-11-15T12:48:22.715Z,63.50
2017-11-15T12:50:51.046Z,63.40
2017-11-15T12:53:20.098Z,63.30
2017-11-15T12:55:48.463Z,63.40
2017-11-15T12:58:16.807Z,63.30
2017-11-15T13:00:45.076Z,63.10
2017-11-15T13:03:13.371Z,63.10
2017-11-15T13:05:42.792Z,63.00
2017-11-15T13:08:11.084Z,62.90
2017-11-15T13:10:39.445Z,63.00
2017-11-15T13:13:07.824Z,62.80
2017-11-15T13:15:37.152Z,62.70
2017-11-15T13:18:05.505Z,62.60
2017-11-15T13:20:33.777Z,62.50
2017-11-15T13:23:02.050Z,62.50
2017-11-15T13:25:30.423Z,62.30
2017-11-15T13:27:58.736Z,62.30
2017-11-15T13:30:27.102Z,62.20
2017-11-15T13:32:55.448Z,62.10
2017-11-15T13:35:23.724Z,62.00
2017-11-15T13:37:52.804Z,61.90
2017-11-15T13:40:21.875Z,62.00
2017-11-15T13:42:50.201Z,61.90
2017-11-15T13:45:18.614Z,61.90
2017-11-15T13:47:46.938Z,61.90
2017-11-15T13:50:16.042Z,61.70
2017-11-15T13:52:44.442Z,62.40
2017-11-15T13:55:12.768Z,61.60
2017-11-15T13:57:41.082Z,61.70
2017-11-15T14:00:11.131Z,61.70
2017-11-15T14:02:40.899Z,61.70
2017-11-15T14:05:09.225Z,61.60
2017-11-15T14:07:37.560Z,62.00
2017-11-15T14:10:05.856Z,61.50
2017-11-15T14:12:36.368Z,61.40
2017-11-15T14:15:04.408Z,61.30
2017-11-15T14:17:43.766Z,61.30
2017-11-15T14:20:12.091Z,55.90
2017-11-15T14:22:40.397Z,55.80
2017-11-15T14:25:08.686Z,56.50
2017-11-15T14:27:37.806Z,56.80
2017-11-15T14:30:06.831Z,56.00
2017-11-15T14:32:35.180Z,56.00
2017-11-15T14:35:03.505Z,55.50
2017-11-15T14:37:31.764Z,55.00
2017-11-15T14:40:00.422Z,54.70
2017-11-15T14:42:28.755Z,54.90
2017-11-15T14:44:57.560Z,54.50
2017-11-15T14:47:26.123Z,54.60
2017-11-15T14:49:56.266Z,54.00
2017-11-15T14:52:24.673Z,54.50
2017-11-15T14:54:52.956Z,54.70
2017-11-15T14:57:21.293Z,53.80
2017-11-15T14:59:50.903Z,52.70
2017-11-15T15:02:26.645Z,52.00
2017-11-15T15:05:11.828Z,51.30
2017-11-15T15:07:40.217Z,50.10
2017-11-15T15:10:09.627Z,47.70
2017-11-15T15:12:38.896Z,47.60
2017-11-15T15:15:07.716Z,47.20
2017-11-15T15:17:36.968Z,46.80
2017-11-15T15:20:05.289Z,46.80
2017-11-15T15:22:34.356Z,46.80
2017-11-15T15:25:03.449Z,46.90
2017-11-15T15:27:31.786Z,46.80
2017-11-15T15:30:00.576Z,48.10
2017-11-15T15:32:28.892Z,48.60
2017-11-15T15:34:57.224Z,49.30
2017-11-15T15:37:25.540Z,49.60
2017-11-15T15:39:54.710Z,49.70
2017-11-15T15:42:23.019Z,49.80
2017-11-15T15:44:51.361Z,49.40
2017-11-15T15:47:19.625Z,49.40
2017-11-15T15:49:48.214Z,48.90
2017-11-15T15:52:16.511Z,48.60
2017-11-15T15:54:44.940Z,47.90
2017-11-15T15:57:13.261Z,48.30
2017-11-15T15:59:41.694Z,48.60
2017-11-15T16:02:10.040Z,48.40
2017-11-15T16:04:38.314Z,47.30
2017-11-15T16:07:10.793Z,45.60
2017-11-15T16:09:39.068Z,47.20
2017-11-15T16:12:07.343Z,47.80
2017-11-15T16:14:35.725Z,48.40
2017-11-15T16:17:04.612Z,49.20
2017-11-15T16:19:32.923Z,48.90
2017-11-15T16:22:01.249Z,48.90
2017-11-15T16:24:29.582Z,49.00
2017-11-15T16:26:57.969Z,48.30
2017-11-15T16:29:26.414Z,48.20
2017-11-15T16:31:54.731Z,48.50
2017-11-15T16:34:23.014Z,47.60
2017-11-15T16:36:51.537Z,47.60
2017-11-15T16:39:19.860Z,46.80
2017-11-15T16:41:50.188Z,47.10
2017-11-15T16:44:21.174Z,47.40
2017-11-15T16:46:50.720Z,47.30
2017-11-15T16:49:19.139Z,47.10
2017-11-15T16:51:48.710Z,48.60
2017-11-15T16:54:17.017Z,48.60
2017-11-15T16:56:45.636Z,49.20
2017-11-15T16:59:14.439Z,48.60
2017-11-15T17:01:42.768Z,48.20
2017-11-15T17:04:11.080Z,47.90
2017-11-15T17:06:39.446Z,47.30
2017-11-15T17:09:07.570Z,47.10
2017-11-15T17:11:36.436Z,47.10
2017-11-15T17:14:11.361Z,46.80
2017-11-15T17:16:41.145Z,46.60
2017-11-15T17:19:09.423Z,46.50
2017-11-15T17:21:38.507Z,46.80
2017-11-15T17:24:07.551Z,47.30
2017-11-15T17:26:36.094Z,47.30
2017-11-15T17:29:05.644Z,47.10
2017-11-15T17:31:33.920Z,46.30
2017-11-15T17:34:02.196Z,46.70
2017-11-15T17:36:30.517Z,47.50
2017-11-15T17:38:58.849Z,48.00
2017-11-15T17:41:27.230Z,47.20
2017-11-15T17:43:55.557Z,46.40
2017-11-15T17:46:24.809Z,47.00
2017-11-15T17:48:53.138Z,46.30
2017-11-15T17:51:23.048Z,45.80
2017-11-15T17:53:52.135Z,46.30
2017-11-15T17:56:20.420Z,46.20
2017-11-15T17:58:49.561Z,46.40
2017-11-15T18:01:18.452Z,46.40
2017-11-15T18:03:46.728Z,46.00
2017-11-15T18:06:15.082Z,45.70
2017-11-15T18:08:43.389Z,45.30
2017-11-15T18:11:11.661Z,45.70
2017-11-15T18:13:40.678Z,46.00
2017-11-15T18:16:08.960Z,45.80
2017-11-15T18:18:37.285Z,45.80
2017-11-15T18:21:05.553Z,45.80
2017-11-15T18:23:34.193Z,45.50
2017-11-15T18:26:02.499Z,45.80
2017-11-15T18:28:30.836Z,45.40
2017-11-15T18:30:59.170Z,45.60
2017-11-15T18:33:29.966Z,45.40
2017-11-15T18:35:58.337Z,45.40
2017-11-15T18:38:26.610Z,45.60
2017-11-15T18:40:55.087Z,45.30
2017-11-15T18:43:23.422Z,45.80
2017-11-15T18:45:51.732Z,46.00
2017-11-15T18:48:20.107Z,45.60
2017-11-15T18:50:48.485Z,45.50
2017-11-15T18:53:16.799Z,45.60
2017-11-15T18:55:45.219Z,45.40
2017-11-15T18:58:13.937Z,45.90
2017-11-15T19:00:42.502Z,45.60
2017-11-15T19:03:10.924Z,45.70
2017-11-15T19:05:39.710Z,45.40
2017-11-15T19:08:08.034Z,45.50
2017-11-15T19:10:36.354Z,45.50
2017-11-15T19:13:04.423Z,46.10
2017-11-15T19:15:32.737Z,45.70
2017-11-15T19:18:01.112Z,45.30
2017-11-15T19:20:29.436Z,45.40
2017-11-15T19:22:57.997Z,45.70
2017-11-15T19:25:26.296Z,45.50
2017-11-15T19:27:54.676Z,45.50
2017-11-15T19:30:23.051Z,44.80
2017-11-15T19:32:51.571Z,44.80
2017-11-15T19:35:20.032Z,44.70
2017-11-15T19:37:48.398Z,45.60
2017-11-15T19:40:16.827Z,44.70
2017-11-15T19:42:45.803Z,45.10
2017-11-15T19:45:14.279Z,44.60
2017-11-15T19:47:44.709Z,45.20
2017-11-15T19:50:13.058Z,44.70
2017-11-15T19:52:41.426Z,44.60
2017-11-15T19:55:10.340Z,44.70
2017-11-15T19:57:38.618Z,45.00
2017-11-15T20:00:06.957Z,45.50
2017-11-15T20:02:35.263Z,45.50
2017-11-15T20:05:03.584Z,46.00
2017-11-15T20:07:31.917Z,45.70
2017-11-15T20:10:00.275Z,45.20
2017-11-15T20:12:29.401Z,45.70
2017-11-15T20:14:58.079Z,45.70
2017-11-15T20:17:27.014Z,45.40
2017-11-15T20:19:55.481Z,45.20
2017-11-15T20:22:24.539Z,45.90
2017-11-15T20:24:52.841Z,45.30
2017-11-15T20:27:21.212Z,45.00
2017-11-15T20:29:50.150Z,44.10
2017-11-15T20:32:18.970Z,44.70
2017-11-15T20:34:47.782Z,44.50
2017-11-15T20:37:16.491Z,44.70
2017-11-15T20:39:44.842Z,44.90
2017-11-15T20:42:14.278Z,44.90
2017-11-15T20:44:43.082Z,44.60
2017-11-15T20:47:16.297Z,45.00
2017-11-15T20:49:52.753Z,44.80
2017-11-15T20:52:25.611Z,45.40
2017-11-15T20:54:54.093Z,45.40
2017-11-15T20:57:22.620Z,44.90
2017-11-15T20:59:52.089Z,44.40
2017-11-15T21:02:20.772Z,44.40
2017-11-15T21:04:49.977Z,44.90
2017-11-15T21:07:18.555Z,44.30
2017-11-15T21:09:50.424Z,44.50
2017-11-15T21:12:20.227Z,45.20
2017-11-15T21:14:49.688Z,43.90
2017-11-15T21:17:18.326Z,43.30
2017-11-15T21:19:47.709Z,44.50
2017-11-15T21:22:16.116Z,44.50
2017-11-15T21:24:44.676Z,45.00
2017-11-15T21:27:13.063Z,45.10
2017-11-15T21:29:41.401Z,45.30
2017-11-15T21:32:10.224Z,45.10
2017-11-15T21:34:38.558Z,44.70
2017-11-15T21:37:06.851Z,45.00
2017-11-15T21:39:35.164Z,45.40
2017-11-15T21:42:03.947Z,45.50
2017-11-15T21:44:32.298Z,45.50
2017-11-15T21:47:00.571Z,45.70
2017-11-15T21:49:30.561Z,45.00
2017-11-15T21:51:59.636Z,45.00
2017-11-15T21:54:28.164Z,44.90
2017-11-15T21:57:07.564Z,45.30
2017-11-15T21:59:39.694Z,44.90
2017-11-15T22:02:10.109Z,44.90
2017-11-15T22:04:38.471Z,44.60
2017-11-15T22:07:06.809Z,44.60
2017-11-15T22:09:35.895Z,44.90
2017-11-15T22:12:04.207Z,44.90
2017-11-15T22:14:33.434Z,44.70
2017-11-15T22:17:01.837Z,44.70
2017-11-15T22:19:30.429Z,45.00
2017-11-15T22:21:58.769Z,45.00
2017-11-15T22:24:27.162Z,44.50
2017-11-15T22:26:55.474Z,43.70
2017-11-15T22:29:23.805Z,43.60
2017-11-15T22:31:55.982Z,44.50
2017-11-15T22:34:24.323Z,45.00
2017-11-15T22:36:52.655Z,44.30
2017-11-15T22:39:20.964Z,44.40
2017-11-15T22:41:50.834Z,43.60
2017-11-15T22:44:19.113Z,43.60
2017-11-15T22:46:47.819Z,43.80
2017-11-15T22:49:16.196Z,44.70
2017-11-15T22:51:44.580Z,45.30
2017-11-15T22:54:12.426Z,44.40
2017-11-15T22:56:45.689Z,44.30
2017-11-15T22:59:21.710Z,44.00
2017-11-15T23:01:51.933Z,44.00
2017-11-15T23:04:27.521Z,43.80
2017-11-15T23:07:05.349Z,43.80
2017-11-15T23:09:34.676Z,44.40
2017-11-15T23:12:02.976Z,44.40
2017-11-15T23:14:31.376Z,44.60
2017-11-15T23:17:01.580Z,45.70
2017-11-15T23:19:29.963Z,45.70
2017-11-15T23:21:59.075Z,44.70
2017-11-15T23:24:28.229Z,45.50
2017-11-15T23:26:56.603Z,44.00
2017-11-15T23:29:24.876Z,44.60
2017-11-15T23:31:53.157Z,45.20
2017-11-15T23:34:21.486Z,44.40
2017-11-15T23:36:50.570Z,45.00
2017-11-15T23:39:18.396Z,45.00
2017-11-15T23:41:46.656Z,45.10
2017-11-15T23:44:14.964Z,45.20
2017-11-15T23:46:43.938Z,45.20
2017-11-15T23:49:12.473Z,44.70
2017-11-15T23:51:41.919Z,45.00
2017-11-15T23:54:10.430Z,45.00
2017-11-15T23:56:38.833Z,45.00
2017-11-15T23:59:07.200Z,44.90
